Welcome to Des Moines Iowa Weather. I am an independent private personal weather station on the Northwest Side of Des Moines, Iowa. Just East of Windsor Heights and just West of Glendale . This site is also mobile friendly.

There are no active watches, warnings or advisories


Visit our other weather sites:

Historical Data

Weather Station Setup



Weather Underground History page Text

Daily Summary for January 2, 2018 Units:  Metric    English   Both
« Previous Day
Next Day »
Daily Weekly Monthly Yearly Custom
  High: Low: Average:
Temperature: -6.7 °C -26.4 °C -20.4 °C
Dew Point: -10 °C -28.9 °C -23.8 °C
Humidity: 83 % 56 % 76 %
Wind Speed: 8 km/h 0 km/h 0.5 km/h
Wind Gust: 16.1 km/h - -
Wind:- - SSE
Pressure: 1045.9 hPa 1021.2 hPa -
Precipitation: 0 mm    
Historical Graphs
 
 
Tabular Data for January 2, 2018
Time Temperature Dew Point Pressure Wind Wind Speed Wind Gust Humidity Rainfall Rate (Hourly)
00:00 -23.8 °C -26.3 °C 1045.9 hPa Calm     80 % 0 mm
00:05 -23.8 °C -26.3 °C 1045.9 hPa Calm     80 % 0 mm
00:10 -23.8 °C -26.4 °C 1045.9 hPa Calm     79 % 0 mm
00:12 -24 °C -26.7 °C 1045.6 hPa Calm     79 % 0 mm
00:15 -23.8 °C -26.4 °C 1045.9 hPa Calm     79 % 0 mm
00:20 -23.8 °C -26.4 °C 1045.9 hPa Calm     79 % 0 mm
00:25 -23.9 °C -26.6 °C 1045.6 hPa Calm     79 % 0 mm
00:27 -24.2 °C -26.7 °C 1045.3 hPa Calm     79 % 0 mm
00:30 -23.9 °C -26.6 °C 1045.6 hPa Calm     79 % 0 mm
00:35 -23.9 °C -26.6 °C 1045.6 hPa Calm     79 % 0 mm
00:40 -24.1 °C -26.7 °C 1045.6 hPa Calm     79 % 0 mm
00:42 -24.4 °C -27.2 °C 1045.3 hPa Calm     79 % 0 mm
00:45 -24.1 °C -26.7 °C 1045.6 hPa Calm     79 % 0 mm
00:55 -24.3 °C -26.9 °C 1045.3 hPa Calm     79 % 0 mm
00:58 -24.5 °C -27.2 °C 1044.6 hPa Calm     79 % 0 mm
01:00 -24.3 °C -26.9 °C 1045.3 hPa Calm     79 % 0 mm
01:05 -24.3 °C -26.9 °C 1045.3 hPa Calm     79 % 0 mm
01:10 -24.5 °C -27.1 °C 1044.6 hPa Calm     79 % 0 mm
01:12 -24.5 °C -27.2 °C 1044.6 hPa Calm   3.2 km/h 80 % 0 mm
01:15 -24.5 °C -27.1 °C 1044.6 hPa Calm     79 % 0 mm
01:20 -24.5 °C -27.1 °C 1044.6 hPa Calm     79 % 0 mm
01:25 -24.5 °C -26.9 °C 1044.9 hPa Calm     80 % 0 mm
01:28 -24.6 °C -27.2 °C 1044.9 hPa Calm     80 % 0 mm
01:30 -24.5 °C -26.9 °C 1044.9 hPa Calm     80 % 0 mm
01:35 -24.5 °C -26.9 °C 1044.9 hPa Calm     80 % 0 mm
01:40 -24.6 °C -27 °C 1044.9 hPa Calm     80 % 0 mm
01:44 -24.7 °C -27.2 °C 1044.9 hPa Calm     80 % 0 mm
01:45 -24.6 °C -27 °C 1044.9 hPa Calm     80 % 0 mm
01:55 -24.6 °C -27.1 °C 1044.9 hPa Calm     80 % 0 mm
01:58 -24.7 °C -27.2 °C 1044.6 hPa Calm   1.6 km/h 80 % 0 mm
02:10 -24.7 °C -27.2 °C 1044.6 hPa Calm     80 % 0 mm
02:13 -24.7 °C -27.2 °C 1044.9 hPa North 1.6 km/h 3.2 km/h 80 % 0 mm
02:15 -24.7 °C -27.2 °C 1044.6 hPa Calm     80 % 0 mm
02:20 -24.7 °C -27.2 °C 1044.6 hPa Calm     80 % 0 mm
02:25 -24.7 °C -27.2 °C 1044.9 hPa Calm   4.8 km/h 80 % 0 mm
02:30 -24.7 °C -27.2 °C 1044.9 hPa Calm   4.8 km/h 80 % 0 mm
02:35 -24.7 °C -27.2 °C 1044.9 hPa Calm   4.8 km/h 80 % 0 mm
02:40 -24.6 °C -26.9 °C 1044.9 hPa Calm   4.8 km/h 81 % 0 mm
02:43 -24.3 °C -26.7 °C 1044.9 hPa Calm   3.2 km/h 81 % 0 mm
02:45 -24.6 °C -26.9 °C 1044.9 hPa Calm   4.8 km/h 81 % 0 mm
02:50 -24.6 °C -26.9 °C 1044.9 hPa Calm   4.8 km/h 81 % 0 mm
02:55 -24.4 °C -26.8 °C 1044.9 hPa Calm   3.2 km/h 80 % 0 mm
02:58 -24.3 °C -26.7 °C 1044.9 hPa Calm   3.2 km/h 80 % 0 mm
03:00 -24.4 °C -26.8 °C 1044.9 hPa Calm   3.2 km/h 80 % 0 mm
03:05 -24.4 °C -26.8 °C 1044.9 hPa Calm   3.2 km/h 80 % 0 mm
03:10 -24.3 °C -26.8 °C 1045.3 hPa Calm     80 % 0 mm
03:13 -24.4 °C -27.2 °C 1044.9 hPa Calm     80 % 0 mm
03:15 -24.3 °C -26.8 °C 1045.3 hPa Calm     80 % 0 mm
03:20 -24.3 °C -26.8 °C 1045.3 hPa Calm     80 % 0 mm
03:25 -24.4 °C -26.8 °C 1044.9 hPa Calm   1.6 km/h 80 % 0 mm
03:28 -24.5 °C -27.2 °C 1044.9 hPa Calm   3.2 km/h 80 % 0 mm
03:30 -24.4 °C -26.8 °C 1044.9 hPa Calm   1.6 km/h 80 % 0 mm
03:35 -24.4 °C -26.8 °C 1044.9 hPa Calm   1.6 km/h 80 % 0 mm
03:43 -24.5 °C -27.2 °C 1044.9 hPa North 1.6 km/h 3.2 km/h 80 % 0 mm
03:45 -24.5 °C -26.9 °C 1044.9 hPa Calm   3.2 km/h 80 % 0 mm
03:55 -24.5 °C -26.9 °C 1044.9 hPa Calm   4.8 km/h 80 % 0 mm
03:58 -24.4 °C -27.2 °C 1044.6 hPa Calm   1.6 km/h 80 % 0 mm
04:00 -24.5 °C -26.9 °C 1044.9 hPa Calm   4.8 km/h 80 % 0 mm
04:05 -24.5 °C -26.9 °C 1044.9 hPa Calm   4.8 km/h 80 % 0 mm
04:10 -24.4 °C -26.9 °C 1044.9 hPa Calm   4.8 km/h 80 % 0 mm
04:13 -24.3 °C -26.7 °C 1044.2 hPa Calm   1.6 km/h 80 % 0 mm
04:15 -24.4 °C -26.9 °C 1044.9 hPa Calm   4.8 km/h 80 % 0 mm
04:20 -24.4 °C -26.9 °C 1044.9 hPa Calm   4.8 km/h 80 % 0 mm
04:25 -24.4 °C -26.8 °C 1044.6 hPa Calm   6.4 km/h 80 % 0 mm
04:29 -24.4 °C -26.7 °C 1044.2 hPa Calm     80 % 0 mm
04:30 -24.4 °C -26.8 °C 1044.6 hPa Calm   6.4 km/h 80 % 0 mm
04:40 -24.3 °C -26.8 °C 1044.2 hPa Calm     80 % 0 mm
04:44 -24.5 °C -27.2 °C 1043.6 hPa Calm     80 % 0 mm
04:45 -24.3 °C -26.8 °C 1044.2 hPa Calm     80 % 0 mm
04:55 -24.4 °C -26.9 °C 1043.9 hPa Calm     80 % 0 mm
04:59 -24.7 °C -27.2 °C 1043.6 hPa Calm     79 % 0 mm
05:00 -24.4 °C -26.9 °C 1043.9 hPa Calm     80 % 0 mm
05:05 -24.4 °C -26.9 °C 1043.9 hPa Calm     80 % 0 mm
05:10 -24.6 °C -27.2 °C 1043.6 hPa Calm     79 % 0 mm
05:14 -25 °C -27.8 °C 1043.6 hPa Calm   1.6 km/h 79 % 0 mm
05:15 -24.6 °C -27.2 °C 1043.6 hPa Calm     79 % 0 mm
05:20 -24.6 °C -27.2 °C 1043.6 hPa Calm     79 % 0 mm
05:25 -24.8 °C -27.4 °C 1043.6 hPa Calm     79 % 0 mm
05:29 -25.3 °C -27.8 °C 1043.2 hPa Calm   1.6 km/h 79 % 0 mm
05:30 -24.8 °C -27.4 °C 1043.6 hPa Calm     79 % 0 mm
05:35 -24.8 °C -27.4 °C 1043.6 hPa Calm     79 % 0 mm
05:40 -25.2 °C -27.7 °C 1043.2 hPa Calm     79 % 0 mm
05:44 -25.6 °C -28.3 °C 1042.9 hPa North 1.6 km/h 1.6 km/h 79 % 0 mm
05:45 -25.2 °C -27.7 °C 1043.2 hPa Calm     79 % 0 mm
05:50 -25.2 °C -27.7 °C 1043.2 hPa Calm     79 % 0 mm
05:55 -25.4 °C -28 °C 1042.9 hPa Calm     79 % 0 mm
06:00 -25.8 °C -28.3 °C 1042.2 hPa Calm   3.2 km/h 79 % 0 mm
06:05 -25.4 °C -28 °C 1042.9 hPa Calm     79 % 0 mm
06:10 -25.7 °C -28.3 °C 1042.2 hPa Calm     79 % 0 mm
06:14 -25.9 °C -28.3 °C 1042.2 hPa Calm   1.6 km/h 79 % 0 mm
06:15 -25.7 °C -28.3 °C 1042.2 hPa Calm     79 % 0 mm
06:20 -25.7 °C -28.3 °C 1042.2 hPa Calm     79 % 0 mm
06:25 -25.9 °C -28.5 °C 1042.2 hPa Calm     79 % 0 mm
06:29 -26.1 °C -28.9 °C 1042.2 hPa Calm     79 % 0 mm
06:30 -25.9 °C -28.5 °C 1042.2 hPa Calm     79 % 0 mm
06:35 -25.9 °C -28.5 °C 1042.2 hPa Calm     79 % 0 mm
06:44 -26.2 °C -28.9 °C 1041.9 hPa Calm     79 % 0 mm
06:45 -26.1 °C -28.6 °C 1042.2 hPa Calm     79 % 0 mm
06:50 -26.1 °C -28.6 °C 1042.2 hPa Calm     79 % 0 mm
06:55 -26.2 °C -28.7 °C 1042.2 hPa Calm     79 % 0 mm
06:59 -26.3 °C -28.9 °C 1041.9 hPa Calm     79 % 0 mm
07:00 -26.2 °C -28.7 °C 1042.2 hPa Calm     79 % 0 mm
07:05 -26.2 °C -28.7 °C 1042.2 hPa Calm     79 % 0 mm
07:10 -26.3 °C -28.8 °C 1042.2 hPa Calm     79 % 0 mm
07:14 -26.4 °C -28.9 °C 1041.5 hPa Calm     79 % 0 mm
07:15 -26.3 °C -28.8 °C 1042.2 hPa Calm     79 % 0 mm
07:20 -26.3 °C -28.8 °C 1042.2 hPa Calm     79 % 0 mm
07:30 -26.2 °C -28.9 °C 1041.5 hPa North 3.2 km/h 3.2 km/h 80 % 0 mm
07:35 -26.3 °C -28.9 °C 1041.9 hPa Calm     79 % 0 mm
07:40 -26.3 °C -28.7 °C 1041.5 hPa Calm     80 % 0 mm
07:44 -25.9 °C -28.3 °C 1041.2 hPa Calm   1.6 km/h 80 % 0 mm
07:45 -26.3 °C -28.7 °C 1041.5 hPa Calm     80 % 0 mm
07:50 -26.3 °C -28.7 °C 1041.5 hPa Calm     80 % 0 mm
07:55 -26.1 °C -28.4 °C 1041.2 hPa Calm     80 % 0 mm
07:59 -25.8 °C -28.3 °C 1040.9 hPa Calm     80 % 0 mm
08:00 -26.1 °C -28.4 °C 1041.2 hPa Calm     80 % 0 mm
08:05 -26.1 °C -28.4 °C 1041.2 hPa Calm     80 % 0 mm
08:15 -25.7 °C -27.8 °C 1040.9 hPa Calm     81 % 0 mm
08:30 -25.3 °C -27.8 °C 1040.9 hPa Calm     81 % 0 mm
08:45 -24.5 °C -26.7 °C 1040.5 hPa Calm   3.2 km/h 82 % 0 mm
09:00 -23.5 °C -25.6 °C 1040.2 hPa North 1.6 km/h 4.8 km/h 83 % 0 mm
09:15 -22.1 °C -24.4 °C 1039.8 hPa Calm   3.2 km/h 83 % 0 mm
09:31 -21.2 °C -23.3 °C 1039.8 hPa North 1.6 km/h 4.8 km/h 83 % 0 mm
09:47 -20.2 °C -22.2 °C 1039.8 hPa North 1.6 km/h 4.8 km/h 83 % 0 mm
10:01 -18 °C -21.7 °C 1039.8 hPa Calm   4.8 km/h 73 % 0 mm
10:15 -17.3 °C -22.2 °C 1039.5 hPa North 1.6 km/h 6.4 km/h 66 % 0 mm
10:31 -16.6 °C -22.2 °C 1039.2 hPa North 1.6 km/h 4.8 km/h 63 % 0 mm
10:47 -15.8 °C -21.7 °C 1038.8 hPa North 1.6 km/h 6.4 km/h 62 % 0 mm
11:01 -15.1 °C -21.1 °C 1038.5 hPa Calm   9.7 km/h 61 % 0 mm
11:16 -14.6 °C -20.6 °C 1038.1 hPa Calm   11.3 km/h 60 % 0 mm
11:30 -14.2 °C -20.6 °C 1037.5 hPa South 3.2 km/h 11.3 km/h 60 % 0 mm
11:46 -13.4 °C -19.4 °C 1037.1 hPa SW 1.6 km/h 6.4 km/h 61 % 0 mm
12:01 -13.1 °C -19.4 °C 1036.5 hPa SW 1.6 km/h 14.5 km/h 60 % 0 mm
12:16 -12.5 °C -18.9 °C 1036.1 hPa ENE 1.6 km/h 6.4 km/h 60 % 0 mm
12:32 -11.8 °C -18.3 °C 1035.1 hPa NW 1.6 km/h 11.3 km/h 59 % 0 mm
12:46 -11.3 °C -18.3 °C 1034.4 hPa WSW 1.6 km/h 16.1 km/h 57 % 0 mm
13:01 -10.7 °C -17.8 °C 1033.7 hPa SSE 1.6 km/h 11.3 km/h 58 % 0 mm
13:17 -10.3 °C -17.8 °C 1033.7 hPa WSW 1.6 km/h 8 km/h 56 % 0 mm
13:31 -10.2 °C -17.2 °C 1033.4 hPa Calm   16.1 km/h 56 % 0 mm
13:46 -10.1 °C -17.2 °C 1032.4 hPa WNW 1.6 km/h 11.3 km/h 56 % 0 mm
14:02 -10 °C -17.2 °C 1032.1 hPa SE 6.4 km/h 8 km/h 56 % 0 mm
14:17 -10.3 °C -17.8 °C 1031.7 hPa South 3.2 km/h 16.1 km/h 56 % 0 mm
14:32 -10.4 °C -17.8 °C 1031.7 hPa SW 3.2 km/h 11.3 km/h 57 % 0 mm
14:47 -10.4 °C -17.8 °C 1031.4 hPa Calm   6.4 km/h 57 % 0 mm
15:02 -10.5 °C -17.2 °C 1031.4 hPa Calm   8 km/h 58 % 0 mm
15:17 -10.4 °C -17.2 °C 1031 hPa Calm   9.7 km/h 58 % 0 mm
15:32 -10.5 °C -17.2 °C 1030.4 hPa Calm   12.9 km/h 58 % 0 mm
15:47 -10.4 °C -17.2 °C 1029.7 hPa North 3.2 km/h 12.9 km/h 59 % 0 mm
16:03 -10.4 °C -17.2 °C 1029.3 hPa SSW 3.2 km/h 14.5 km/h 59 % 0 mm
16:18 -10.6 °C -17.2 °C 1029 hPa West 1.6 km/h 14.5 km/h 59 % 0 mm
16:32 -10.7 °C -16.7 °C 1028.3 hPa Calm   6.4 km/h 61 % 0 mm
16:47 -10.8 °C -16.7 °C 1027.7 hPa South 4.8 km/h 9.7 km/h 62 % 0 mm
17:03 -11 °C -16.7 °C 1027.3 hPa SSW 1.6 km/h 11.3 km/h 63 % 0 mm
17:17 -11.1 °C -16.7 °C 1027.3 hPa Calm   11.3 km/h 64 % 0 mm
17:34 -11.1 °C -16.7 °C 1026.6 hPa SSW 1.6 km/h 8 km/h 65 % 0 mm
17:47 -11.1 °C -16.1 °C 1026.3 hPa South 3.2 km/h 16.1 km/h 66 % 0 mm
18:03 -10.9 °C -16.1 °C 1026.3 hPa SE 3.2 km/h 8 km/h 66 % 0 mm
18:18 -10.8 °C -16.1 °C 1026.3 hPa South 3.2 km/h 8 km/h 67 % 0 mm
18:33 -10.7 °C -15.6 °C 1026 hPa SSW 1.6 km/h 11.3 km/h 67 % 0 mm
18:48 -10.4 °C -15.6 °C 1025.6 hPa South 1.6 km/h 9.7 km/h 68 % 0 mm
19:03 -10.2 °C -15 °C 1024.9 hPa Calm   8 km/h 68 % 0 mm
19:19 -10 °C -15 °C 1024.9 hPa Calm   8 km/h 68 % 0 mm
19:33 -9.8 °C -14.4 °C 1024.6 hPa WNW 3.2 km/h 9.7 km/h 69 % 0 mm
19:48 -9.5 °C -14.4 °C 1023.9 hPa SSW 1.6 km/h 12.9 km/h 69 % 0 mm
20:03 -9.2 °C -13.9 °C 1024.3 hPa Calm   6.4 km/h 69 % 0 mm
20:20 -8.8 °C -13.3 °C 1023.9 hPa WSW 1.6 km/h 6.4 km/h 69 % 0 mm
20:34 -8.6 °C -13.3 °C 1023.6 hPa Calm   6.4 km/h 70 % 0 mm
20:48 -8.4 °C -12.2 °C 1023.6 hPa Calm   8 km/h 75 % 0 mm
21:04 -8.4 °C -11.1 °C 1022.9 hPa Calm   8 km/h 80 % 0 mm
21:22 -8.4 °C -11.1 °C 1022.6 hPa SSW 1.6 km/h 4.8 km/h 82 % 0 mm
21:33 -8.3 °C -10.6 °C 1022.2 hPa SSW 3.2 km/h 4.8 km/h 83 % 0 mm
21:49 -8.1 °C -10.6 °C 1021.9 hPa SW 1.6 km/h 4.8 km/h 83 % 0 mm
22:04 -7.9 °C -10.6 °C 1021.9 hPa Calm   4.8 km/h 81 % 0 mm
22:19 -7.8 °C -10.6 °C 1021.9 hPa Calm   8 km/h 79 % 0 mm
22:34 -7.5 °C -11.1 °C 1021.9 hPa Calm   8 km/h 77 % 0 mm
22:49 -7.2 °C -10.6 °C 1021.6 hPa Calm   4.8 km/h 77 % 0 mm
23:05 -7 °C -10.6 °C 1021.6 hPa WNW 1.6 km/h 8 km/h 76 % 0 mm
23:21 -6.9 °C -10.6 °C 1021.6 hPa Calm   6.4 km/h 76 % 0 mm
23:34 -6.8 °C -10.6 °C 1021.2 hPa West 1.6 km/h 6.4 km/h 76 % 0 mm
23:49 -6.7 °C -10 °C 1021.2 hPa NW 8 km/h 8 km/h 77 % 0 mm
Des Moines Weather and Climate
Compliments of Weather Underground - 3.5 mb

Script developed by  Jim McMurry - jmcmurry@mwt.net Adapted for the template by  Wim van der Kuil - Leuven-Template.eu

You find our weather info also at:

Weather Underground

Equipment we use:

Weather-station
Davis VP2 Plus

Weather-program
Davis Weatherlink.Com

Weather-server
iMac (Retina 4K, 21.5-inch, Late 2015)

Provider
Hostmonster.com

Davis VP2 Plus

Davis Weatherlink.Com

iMac (Retina 4K, 21.5-inch, Late 2015)

Hostmonster.com